Observation data for Abernathy on 07/21/2019      Previous  Date  Next       Current Mesonet Observations  Soil Data  Daily Summary Page  Observations in Plain Language
KARS 210500Z 16010KT 29/13 A2993 RMK A01 T02850130  RH  040%=      5-min Rain = 0
KARS 210505Z 16009KT 28/13 A2994 RMK A01 T02840130  RH  040%=      5-min Rain = 0
KARS 210510Z 16010KT 28/13 A2994 RMK A01 T02830130  RH  040%=      5-min Rain = 0
KARS 210515Z 16010KT 28/13 A2994 RMK A01 T02820130  RH  041%=      5-min Rain = 0
KARS 210520Z 16010KT 28/13 A2994 RMK A01 T02800129  RH  041%=      5-min Rain = 0
KARS 210525Z 16010KT 28/13 A2994 RMK A01 T02790129  RH  041%=      5-min Rain = 0
KARS 210530Z 16010KT 28/13 A2994 RMK A01 T02780128  RH  041%=      5-min Rain = 0
KARS 210535Z 16010KT 28/13 A2994 RMK A01 T02770128  RH  041%=      5-min Rain = 0
KARS 210540Z 16009KT 28/13 A2994 RMK A01 T02750128  RH  042%=      5-min Rain = 0
KARS 210545Z 17009KT 27/13 A2994 RMK A01 T02730128  RH  042%=      5-min Rain = 0
KARS 210550Z 17009KT 27/13 A2995 RMK A01 T02720128  RH  042%=      5-min Rain = 0
KARS 210555Z 17009KT 27/13 A2994 RMK A01 T02710127  RH  043%=      5-min Rain = 0
KARS 210600Z 18009KT 27/13 A2995 RMK A01 T02680128  RH  043%=      5-min Rain = 0
KARS 210605Z 17008KT 27/13 A2995 RMK A01 T02670127  RH  044%=      5-min Rain = 0
KARS 210610Z 17008KT 27/13 A2995 RMK A01 T02670127  RH  044%=      5-min Rain = 0
KARS 210615Z 17009KT 27/13 A2995 RMK A01 T02680127  RH  043%=      5-min Rain = 0
KARS 210620Z 17010KT 27/13 A2995 RMK A01 T02710126  RH  042%=      5-min Rain = 0
KARS 210625Z 17011KT 27/13 A2995 RMK A01 T02730125  RH  041%=      5-min Rain = 0
KARS 210630Z 17010KT 27/12 A2995 RMK A01 T02740124  RH  041%=      5-min Rain = 0
KARS 210635Z 17009KT 27/12 A2995 RMK A01 T02720124  RH  041%=      5-min Rain = 0
KARS 210640Z 18010KT 27/12 A2995 RMK A01 T02700123  RH  042%=      5-min Rain = 0
KARS 210645Z 18009KT 27/12 A2996 RMK A01 T02700123  RH  042%=      5-min Rain = 0
KARS 210650Z 18009KT 27/12 A2996 RMK A01 T02680122  RH  042%=      5-min Rain = 0
KARS 210655Z 18009KT 27/12 A2996 RMK A01 T02670122  RH  042%=      5-min Rain = 0
KARS 210700Z 18009KT 27/12 A2996 RMK A01 T02670122  RH  042%=      5-min Rain = 0
KARS 210705Z 18008KT 27/12 A2997 RMK A01 T02670121  RH  042%=      5-min Rain = 0
KARS 210710Z 18009KT 27/12 A2997 RMK A01 T02660121  RH  042%=      5-min Rain = 0
KARS 210715Z 18009KT 27/12 A2997 RMK A01 T02660121  RH  042%=      5-min Rain = 0
KARS 210720Z 18009KT 27/12 A2997 RMK A01 T02660121  RH  042%=      5-min Rain = 0
KARS 210725Z 18009KT 27/12 A2997 RMK A01 T02650121  RH  042%=      5-min Rain = 0
KARS 210730Z 18009KT 27/12 A2997 RMK A01 T02650122  RH  042%=      5-min Rain = 0
KARS 210735Z 18009KT 27/12 A2996 RMK A01 T02650121  RH  043%=      5-min Rain = 0
KARS 210740Z 17009KT 26/12 A2996 RMK A01 T02640122  RH  043%=      5-min Rain = 0
KARS 210745Z 18010KT 27/12 A2996 RMK A01 T02650122  RH  043%=      5-min Rain = 0
KARS 210750Z 18010KT 27/12 A2996 RMK A01 T02660122  RH  042%=      5-min Rain = 0
KARS 210755Z 18011KT 27/12 A2996 RMK A01 T02660121  RH  042%=      5-min Rain = 0
KARS 210800Z 18011G16KT 27/12 A2996 RMK A01 T02670121  RH  042%=      5-min Rain = 0
KARS 210805Z 18011KT 27/12 A2997 RMK A01 T02660121  RH  042%=      5-min Rain = 0
KARS 210810Z 19011KT 27/12 A2997 RMK A01 T02650120  RH  042%=      5-min Rain = 0
KARS 210815Z 18011KT 26/12 A2997 RMK A01 T02640120  RH  042%=      5-min Rain = 0
KARS 210820Z 18010KT 26/12 A2997 RMK A01 T02630120  RH  042%=      5-min Rain = 0
KARS 210825Z 18010KT 26/12 A2997 RMK A01 T02620119  RH  042%=      5-min Rain = 0
KARS 210830Z 19010KT 26/12 A2997 RMK A01 T02610118  RH  042%=      5-min Rain = 0
KARS 210835Z 19010KT 26/12 A2997 RMK A01 T02630118  RH  042%=      5-min Rain = 0
KARS 210840Z 19011KT 26/12 A2996 RMK A01 T02620117  RH  042%=      5-min Rain = 0
KARS 210845Z 19011KT 26/12 A2996 RMK A01 T02630115  RH  041%=      5-min Rain = 0
KARS 210850Z 18011KT 26/11 A2996 RMK A01 T02630114  RH  041%=      5-min Rain = 0
KARS 210855Z 18011KT 26/11 A2996 RMK A01 T02630113  RH  041%=      5-min Rain = 0
KARS 210900Z 18011KT 26/11 A2996 RMK A01 T02620113  RH  041%=      5-min Rain = 0
KARS 210905Z 18010KT 26/11 A2996 RMK A01 T02610112  RH  041%=      5-min Rain = 0
KARS 210910Z 18012KT 26/11 A2996 RMK A01 T02620112  RH  040%=      5-min Rain = 0
KARS 210915Z 18011KT 26/11 A2996 RMK A01 T02600112  RH  041%=      5-min Rain = 0
KARS 210920Z 18010KT 26/11 A2996 RMK A01 T02580112  RH  041%=      5-min Rain = 0
KARS 210925Z 18010KT 26/11 A2996 RMK A01 T02570111  RH  041%=      5-min Rain = 0
KARS 210930Z 18009KT 26/11 A2996 RMK A01 T02550111  RH  042%=      5-min Rain = 0
KARS 210935Z 18009KT 25/11 A2996 RMK A01 T02530111  RH  042%=      5-min Rain = 0
KARS 210940Z 18008KT 25/11 A2996 RMK A01 T02500111  RH  043%=      5-min Rain = 0
KARS 210945Z 18007KT 25/11 A2997 RMK A01 T02480112  RH  044%=      5-min Rain = 0
KARS 210950Z 18006KT 25/11 A2997 RMK A01 T02450113  RH  045%=      5-min Rain = 0
KARS 210955Z 17006KT 24/11 A2997 RMK A01 T02410113  RH  046%=      5-min Rain = 0
KARS 211000Z 17007KT 24/11 A2997 RMK A01 T02410113  RH  046%=      5-min Rain = 0
KARS 211005Z 17007KT 24/11 A2997 RMK A01 T02400113  RH  047%=      5-min Rain = 0
KARS 211010Z 17006KT 24/11 A2997 RMK A01 T02380113  RH  047%=      5-min Rain = 0
KARS 211015Z 18006KT 23/11 A2997 RMK A01 T02340113  RH  048%=      5-min Rain = 0
KARS 211020Z 18005KT 23/11 A2997 RMK A01 T02300113  RH  049%=      5-min Rain = 0
KARS 211025Z 18005KT 23/11 A2997 RMK A01 T02270113  RH  050%=      5-min Rain = 0
KARS 211030Z 18005KT 22/11 A2997 RMK A01 T02240113  RH  051%=      5-min Rain = 0
KARS 211035Z 18005KT 22/11 A2997 RMK A01 T02210114  RH  052%=      5-min Rain = 0
KARS 211040Z 18006KT 22/11 A2997 RMK A01 T02180114  RH  054%=      5-min Rain = 0
KARS 211045Z 19007KT 22/11 A2997 RMK A01 T02160114  RH  054%=      5-min Rain = 0
KARS 211050Z 19007KT 22/11 A2997 RMK A01 T02160113  RH  054%=      5-min Rain = 0
KARS 211055Z 20007KT 22/12 A2997 RMK A01 T02170115  RH  054%=      5-min Rain = 0
KARS 211100Z 20006KT 22/12 A2997 RMK A01 T02190116  RH  054%=      5-min Rain = 0
KARS 211105Z 19006KT 22/12 A2997 RMK A01 T02170117  RH  055%=      5-min Rain = 0
KARS 211110Z 17006KT 22/11 A2997 RMK A01 T02160113  RH  054%=      5-min Rain = 0
KARS 211115Z 15006KT 22/11 A2997 RMK A01 T02180111  RH  052%=      5-min Rain = 0
KARS 211120Z 15006KT 22/11 A2997 RMK A01 T02200112  RH  052%=      5-min Rain = 0
KARS 211125Z 16007KT 22/11 A2997 RMK A01 T02200112  RH  052%=      5-min Rain = 0
KARS 211130Z 17007KT 22/11 A2997 RMK A01 T02230110  RH  050%=      5-min Rain = 0
KARS 211135Z 17006KT 23/11 A2997 RMK A01 T02250110  RH  050%=      5-min Rain = 0
KARS 211140Z 18004KT 23/11 A2998 RMK A01 T02250110  RH  050%=      5-min Rain = 0
KARS 211145Z 18003KT 22/11 A2998 RMK A01 T02220111  RH  051%=      5-min Rain = 0
KARS 211150Z 16005KT 22/11 A2998 RMK A01 T02200111  RH  052%=      5-min Rain = 0
KARS 211155Z 16006KT 22/11 A2998 RMK A01 T02160112  RH  053%=      5-min Rain = 0
KARS 211200Z 18005KT 21/11 A2998 RMK A01 T02140112  RH  054%=      5-min Rain = 0
KARS 211205Z 20004KT 21/11 A2999 RMK A01 T02110113  RH  055%=      5-min Rain = 0
KARS 211210Z 20002KT 21/11 A2999 RMK A01 T02100113  RH  056%=      5-min Rain = 0
KARS 211215Z 16002KT 21/11 A2999 RMK A01 T02110112  RH  055%=      5-min Rain = 0
KARS 211220Z 15005KT 21/11 A2999 RMK A01 T02140114  RH  055%=      5-min Rain = 0
KARS 211225Z 16006KT 22/12 A2999 RMK A01 T02160115  RH  055%=      5-min Rain = 0
KARS 211230Z 16004KT 22/12 A30 RMK A01 T02210115  RH  053%=      5-min Rain = 0
KARS 211235Z 13004KT 23/12 A30 RMK A01 T02260118  RH  052%=      5-min Rain = 0
KARS 211240Z 10003KT 23/12 A30 RMK A01 T02280120  RH  052%=      5-min Rain = 0
KARS 211245Z 07001KT 23/12 A3001 RMK A01 T02310124  RH  053%=      5-min Rain = 0
KARS 211250Z 34002KT 23/12 A3001 RMK A01 T02270122  RH  053%=      5-min Rain = 0
KARS 211255Z 31001KT 23/13 A3001 RMK A01 T02270125  RH  055%=      5-min Rain = 0
KARS 211300Z 14002KT 23/12 A3001 RMK A01 T02310124  RH  053%=      5-min Rain = 0
KARS 211305Z 13003KT 24/12 A3001 RMK A01 T02370122  RH  050%=      5-min Rain = 0
KARS 211310Z 11004KT 24/12 A3001 RMK A01 T02410120  RH  048%=      5-min Rain = 0
KARS 211315Z 12004KT 24/12 A3001 RMK A01 T02440120  RH  048%=      5-min Rain = 0
KARS 211320Z 14006KT 25/12 A3001 RMK A01 T02460120  RH  047%=      5-min Rain = 0
KARS 211325Z 17006KT 25/12 A3001 RMK A01 T02500117  RH  045%=      5-min Rain = 0
KARS 211330Z 17007KT 25/11 A3002 RMK A01 T02530114  RH  043%=      5-min Rain = 0
KARS 211335Z 18006KT 26/11 A3002 RMK A01 T02550112  RH  042%=      5-min Rain = 0
KARS 211340Z 17006KT 26/11 A3002 RMK A01 T02590114  RH  042%=      5-min Rain = 0
KARS 211345Z 17007KT 26/11 A3001 RMK A01 T02590113  RH  041%=      5-min Rain = 0
KARS 211350Z 17009KT 26/12 A3002 RMK A01 T02600115  RH  042%=      5-min Rain = 0
KARS 211355Z 17009KT 26/12 A3002 RMK A01 T02620115  RH  041%=      5-min Rain = 0
KARS 211400Z 18010KT 26/11 A3002 RMK A01 T02640114  RH  041%=      5-min Rain = 0
KARS 211405Z 19008KT 27/11 A3002 RMK A01 T02650113  RH  040%=      5-min Rain = 0
KARS 211410Z 19008KT 27/11 A3003 RMK A01 T02650113  RH  040%=      5-min Rain = 0
KARS 211415Z 19010KT 27/11 A3003 RMK A01 T02660114  RH  040%=      5-min Rain = 0
KARS 211420Z 18010KT 27/12 A3002 RMK A01 T02680116  RH  040%=      5-min Rain = 0
KARS 211425Z 18011KT 27/12 A3002 RMK A01 T02700116  RH  040%=      5-min Rain = 0
KARS 211430Z 18009KT 27/12 A3003 RMK A01 T02720117  RH  040%=      5-min Rain = 0
KARS 211435Z 18010KT 28/12 A3003 RMK A01 T02750117  RH  039%=      5-min Rain = 0
KARS 211440Z 18010KT 28/12 A3003 RMK A01 T02760116  RH  038%=      5-min Rain = 0
KARS 211445Z 18009G14KT 28/12 A3003 RMK A01 T02790117  RH  038%=      5-min Rain = 0
KARS 211450Z 17010KT 28/12 A3003 RMK A01 T02800118  RH  038%=      5-min Rain = 0
KARS 211455Z 17011KT 28/12 A3003 RMK A01 T02810119  RH  038%=      5-min Rain = 0
KARS 211500Z 18012KT 28/12 A3002 RMK A01 T02830118  RH  037%=      5-min Rain = 0
KARS 211505Z 17012KT 28/12 A3002 RMK A01 T02840119  RH  037%=      5-min Rain = 0
KARS 211510Z 18012KT 29/12 A3003 RMK A01 T02850119  RH  037%=      5-min Rain = 0
KARS 211515Z 18011G17KT 29/12 A3003 RMK A01 T02880120  RH  037%=      5-min Rain = 0
KARS 211520Z 16012KT 29/12 A3003 RMK A01 T02880123  RH  037%=      5-min Rain = 0
KARS 211525Z 17012KT 29/12 A3003 RMK A01 T02890123  RH  037%=      5-min Rain = 0
KARS 211530Z 18012G18KT 29/12 A3003 RMK A01 T02900122  RH  037%=      5-min Rain = 0
KARS 211535Z 18012KT 29/12 A3003 RMK A01 T02910123  RH  037%=      5-min Rain = 0
KARS 211540Z 17012KT 29/12 A3003 RMK A01 T02880124  RH  038%=      5-min Rain = 0
KARS 211545Z 19010KT 29/12 A3003 RMK A01 T02920124  RH  037%=      5-min Rain = 0
KARS 211550Z 17011KT 30/13 A3004 RMK A01 T02950127  RH  037%=      5-min Rain = 0
KARS 211555Z 18012KT 30/13 A3003 RMK A01 T02980127  RH  037%=      5-min Rain = 0
KARS 211600Z 17014KT 30/13 A3003 RMK A01 T02970127  RH  037%=      5-min Rain = 0
KARS 211605Z 17014KT 30/13 A3003 RMK A01 T02960127  RH  037%=      5-min Rain = 0
KARS 211610Z 18013KT 30/13 A3003 RMK A01 T03000128  RH  036%=      5-min Rain = 0
KARS 211615Z 17011KT 30/13 A3003 RMK A01 T03000129  RH  036%=      5-min Rain = 0
KARS 211620Z 16013KT 30/13 A3003 RMK A01 T02980129  RH  037%=      5-min Rain = 0
KARS 211625Z 17012G19KT 30/13 A3003 RMK A01 T02980130  RH  037%=      5-min Rain = 0
KARS 211630Z 17011KT 30/13 A3003 RMK A01 T03040133  RH  037%=      5-min Rain = 0
KARS 211635Z 17011G16KT 31/14 A3004 RMK A01 T03100135  RH  036%=      5-min Rain = 0
KARS 211640Z 16012KT 31/14 A3003 RMK A01 T03100135  RH  036%=      5-min Rain = 0
KARS 211645Z 18011G17KT 31/14 A3003 RMK A01 T03100136  RH  036%=      5-min Rain = 0
KARS 211650Z 18011G16KT 31/14 A3003 RMK A01 T03100135  RH  036%=      5-min Rain = 0
KARS 211655Z 17011KT 31/14 A3003 RMK A01 T03130137  RH  036%=      5-min Rain = 0
KARS 211700Z 17010G16KT 32/14 A3003 RMK A01 T03170138  RH  035%=      5-min Rain = 0
KARS 211705Z 17010G16KT 31/14 A3004 RMK A01 T03140137  RH  036%=      5-min Rain = 0
KARS 211710Z 18011KT 31/14 A3004 RMK A01 T03140137  RH  036%=      5-min Rain = 0
KARS 211715Z 17011KT 32/14 A3004 RMK A01 T03150138  RH  036%=      5-min Rain = 0
KARS 211720Z 18011KT 31/14 A3004 RMK A01 T03130138  RH  036%=      5-min Rain = 0
KARS 211725Z 17011KT 32/14 A3004 RMK A01 T03160138  RH  035%=      5-min Rain = 0
KARS 211730Z 17009G14KT 32/14 A3004 RMK A01 T03190139  RH  035%=      5-min Rain = 0
KARS 211735Z 20010KT 32/14 A3004 RMK A01 T03200138  RH  034%=      5-min Rain = 0
KARS 211740Z 19010G16KT 32/14 A3004 RMK A01 T03230140  RH  035%=      5-min Rain = 0
KARS 211745Z 19010G15KT 32/14 A3004 RMK A01 T03240140  RH  034%=      5-min Rain = 0
KARS 211750Z 16010G15KT 33/14 A3004 RMK A01 T03280142  RH  034%=      5-min Rain = 0
KARS 211755Z 18011KT 33/14 A3004 RMK A01 T03290141  RH  033%=      5-min Rain = 0
KARS 211800Z 19009G14KT 33/14 A3004 RMK A01 T03250139  RH  034%=      5-min Rain = 0
KARS 211805Z 19010KT 32/14 A3004 RMK A01 T03240139  RH  034%=      5-min Rain = 0
KARS 211810Z 19007G13KT 33/14 A3004 RMK A01 T03260139  RH  034%=      5-min Rain = 0
KARS 211815Z 19009KT 33/14 A3004 RMK A01 T03310139  RH  033%=      5-min Rain = 0
KARS 211820Z 19007G12KT 33/14 A3004 RMK A01 T03330139  RH  032%=      5-min Rain = 0
KARS 211825Z 18008KT 34/14 A3004 RMK A01 T03350142  RH  033%=      5-min Rain = 0
KARS 211830Z 19010KT 34/14 A3004 RMK A01 T03370142  RH  032%=      5-min Rain = 0
KARS 211835Z 19008KT 34/14 A3004 RMK A01 T03380144  RH  033%=      5-min Rain = 0
KARS 211840Z 18009KT 34/14 A3003 RMK A01 T03380142  RH  032%=      5-min Rain = 0
KARS 211845Z 16009G14KT 34/15 A3003 RMK A01 T03420147  RH  032%=      5-min Rain = 0
KARS 211850Z 16011G17KT 34/15 A3003 RMK A01 T03410145  RH  032%=      5-min Rain = 0
KARS 211855Z 16008G15KT 34/14 A3003 RMK A01 T03400144  RH  032%=      5-min Rain = 0
KARS 211900Z 16010G17KT 34/14 A3003 RMK A01 T03440142  RH  031%=      5-min Rain = 0
KARS 211905Z 18010G16KT 35/14 A3003 RMK A01 T03450140  RH  031%=      5-min Rain = 0
KARS 211910Z 17009G14KT 34/13 A3003 RMK A01 T03430132  RH  029%=      5-min Rain = 0
KARS 211915Z 18009KT 35/13 A3003 RMK A01 T03480133  RH  029%=      5-min Rain = 0
KARS 211920Z 18009G14KT 35/13 A3003 RMK A01 T03460129  RH  028%=      5-min Rain = 0
KARS 211925Z 18009G15KT 35/13 A3003 RMK A01 T03490129  RH  028%=      5-min Rain = 0
KARS 211930Z 17007KT 35/13 A3003 RMK A01 T03490127  RH  027%=      5-min Rain = 0
KARS 211935Z 18010G15KT 35/13 A3003 RMK A01 T03530128  RH  027%=      5-min Rain = 0
KARS 211940Z 18012G17KT 35/13 A3003 RMK A01 T03530127  RH  027%=      5-min Rain = 0
KARS 211945Z 20007G12KT 35/12 A3002 RMK A01 T03480119  RH  026%=      5-min Rain = 0
KARS 211950Z 16008G13KT 35/12 A3002 RMK A01 T03490118  RH  026%=      5-min Rain = 0
KARS 211955Z 17007KT 35/12 A3002 RMK A01 T03500117  RH  025%=      5-min Rain = 0
KARS 212000Z 13007G14KT 35/12 A3002 RMK A01 T03520122  RH  026%=      5-min Rain = 0
KARS 212005Z 18009KT 35/12 A3002 RMK A01 T03540123  RH  026%=      5-min Rain = 0
KARS 212010Z 18008G13KT 35/12 A3002 RMK A01 T03540121  RH  025%=      5-min Rain = 0
KARS 212015Z 13007KT 35/12 A3002 RMK A01 T03540120  RH  025%=      5-min Rain = 0
KARS 212020Z 15007G15KT 36/12 A3002 RMK A01 T03550116  RH  025%=      5-min Rain = 0
KARS 212025Z 15006G11KT 36/12 A3002 RMK A01 T03560118  RH  025%=      5-min Rain = 0
KARS 212030Z 16008KT 36/12 A3002 RMK A01 T03570115  RH  024%=      5-min Rain = 0
KARS 212035Z 13010KT 36/12 A3002 RMK A01 T03570117  RH  024%=      5-min Rain = 0
KARS 212040Z 13010KT 35/12 A3002 RMK A01 T03540116  RH  025%=      5-min Rain = 0
KARS 212045Z 15009G15KT 36/12 A3002 RMK A01 T03570116  RH  024%=      5-min Rain = 0
KARS 212050Z 16006G12KT 36/12 A3001 RMK A01 T03550117  RH  025%=      5-min Rain = 0
KARS 212055Z 14011G17KT 36/12 A3001 RMK A01 T03590118  RH  024%=      5-min Rain = 0
KARS 212100Z 14008KT 36/12 A3001 RMK A01 T03600118  RH  024%=      5-min Rain = 0
KARS 212105Z 15006G13KT 36/12 A3001 RMK A01 T03610119  RH  024%=      5-min Rain = 0
KARS 212110Z 17009G15KT 36/12 A3001 RMK A01 T03620120  RH  024%=      5-min Rain = 0
KARS 212115Z 14009KT 36/12 A30 RMK A01 T03630119  RH  024%=      5-min Rain = 0
KARS 212120Z 14012G18KT 36/12 A30 RMK A01 T03610118  RH  024%=      5-min Rain = 0
KARS 212125Z 13010KT 36/12 A30 RMK A01 T03610116  RH  024%=      5-min Rain = 0
KARS 212130Z 16010KT 36/11 A30 RMK A01 T03620114  RH  023%=      5-min Rain = 0
KARS 212135Z 14007G12KT 36/11 A30 RMK A01 T03600113  RH  023%=      5-min Rain = 0
KARS 212140Z 14011G19KT 37/11 A30 RMK A01 T03650112  RH  023%=      5-min Rain = 0
KARS 212145Z 16010KT 37/11 A30 RMK A01 T03660110  RH  022%=      5-min Rain = 0
KARS 212150Z 14011KT 37/11 A30 RMK A01 T03650110  RH  022%=      5-min Rain = 0
KARS 212155Z 15008KT 37/11 A30 RMK A01 T03650111  RH  022%=      5-min Rain = 0
KARS 212200Z 16007KT 36/11 A30 RMK A01 T03610109  RH  023%=      5-min Rain = 0
KARS 212205Z 16012G18KT 37/11 A30 RMK A01 T03660108  RH  022%=      5-min Rain = 0
KARS 212210Z 16010KT 36/11 A30 RMK A01 T03640105  RH  022%=      5-min Rain = 0
KARS 212215Z 14012G17KT 36/10 A30 RMK A01 T03630103  RH  021%=      5-min Rain = 0
KARS 212220Z 16011KT 36/10 A2999 RMK A01 T03630100  RH  021%=      5-min Rain = 0
KARS 212225Z 14010G18KT 36/10 A2999 RMK A01 T03620100  RH  021%=      5-min Rain = 0
KARS 212230Z 13013G18KT 36/10 A2999 RMK A01 T03620099  RH  021%=      5-min Rain = 0
KARS 212235Z 13013G18KT 36/10 A2999 RMK A01 T03640100  RH  021%=      5-min Rain = 0
KARS 212240Z 15013G19KT 36/10 A2999 RMK A01 T03640099  RH  021%=      5-min Rain = 0
KARS 212245Z 14014G20KT 36/10 A2999 RMK A01 T03620097  RH  021%=      5-min Rain = 0
KARS 212250Z 13011G16KT 36/10 A2999 RMK A01 T03600098  RH  021%=      5-min Rain = 0
KARS 212255Z 15011KT 36/10 A2999 RMK A01 T03640099  RH  021%=      5-min Rain = 0
KARS 212300Z 15010G15KT 36/10 A2999 RMK A01 T03630097  RH  021%=      5-min Rain = 0
KARS 212305Z 13009G14KT 36/10 A2999 RMK A01 T03600097  RH  021%=      5-min Rain = 0
KARS 212310Z 15011KT 36/10 A2999 RMK A01 T03590096  RH  021%=      5-min Rain = 0
KARS 212315Z 14010KT 36/10 A2999 RMK A01 T03610097  RH  021%=      5-min Rain = 0
KARS 212320Z 13008KT 36/10 A2999 RMK A01 T03610098  RH  021%=      5-min Rain = 0
KARS 212325Z 12010KT 36/10 A2999 RMK A01 T03600099  RH  021%=      5-min Rain = 0
KARS 212330Z 14011KT 36/10 A2999 RMK A01 T03600098  RH  021%=      5-min Rain = 0
KARS 212335Z 14010KT 36/10 A2999 RMK A01 T03590096  RH  021%=      5-min Rain = 0
KARS 212340Z 14010KT 36/10 A2999 RMK A01 T03580096  RH  021%=      5-min Rain = 0
KARS 212345Z 12006KT 35/09 A2999 RMK A01 T03530094  RH  021%=      5-min Rain = 0
KARS 212350Z 13008KT 36/10 A2999 RMK A01 T03550097  RH  021%=      5-min Rain = 0
KARS 212355Z 11009KT 36/10 A2999 RMK A01 T03550098  RH  022%=      5-min Rain = 0
KARS 220000Z 12009KT 35/10 A2999 RMK A01 T03530103  RH  023%=      5-min Rain = 0
KARS 220005Z 14010G16KT 36/11 A2999 RMK A01 T03550105  RH  023%=      5-min Rain = 0
KARS 220010Z 15011KT 36/10 A2999 RMK A01 T03550101  RH  022%=      5-min Rain = 0
KARS 220015Z 13012G17KT 35/10 A2999 RMK A01 T03510103  RH  023%=      5-min Rain = 0
KARS 220020Z 13011KT 35/11 A2999 RMK A01 T03490105  RH  023%=      5-min Rain = 0
KARS 220025Z 12011KT 35/10 A2999 RMK A01 T03480103  RH  023%=      5-min Rain = 0
KARS 220030Z 13011KT 35/10 A2999 RMK A01 T03470102  RH  023%=      5-min Rain = 0
KARS 220035Z 12009KT 35/10 A2999 RMK A01 T03450101  RH  023%=      5-min Rain = 0
KARS 220040Z 13010KT 35/10 A2999 RMK A01 T03450103  RH  024%=      5-min Rain = 0
KARS 220045Z 14011KT 34/10 A2999 RMK A01 T03440102  RH  023%=      5-min Rain = 0
KARS 220050Z 12010KT 34/11 A2999 RMK A01 T03410105  RH  025%=      5-min Rain = 0
KARS 220055Z 13010KT 34/10 A2999 RMK A01 T03400101  RH  024%=      5-min Rain = 0
KARS 220100Z 13009KT 34/10 A30 RMK A01 T03400101  RH  024%=      5-min Rain = 0
KARS 220105Z 12010KT 34/11 A30 RMK A01 T03370105  RH  025%=      5-min Rain = 0
KARS 220110Z 12009KT 34/11 A30 RMK A01 T03350105  RH  025%=      5-min Rain = 0
KARS 220115Z 12008KT 33/11 A30 RMK A01 T03320107  RH  026%=      5-min Rain = 0
KARS 220120Z 12007KT 33/11 A30 RMK A01 T03300108  RH  027%=      5-min Rain = 0
KARS 220125Z 12007KT 33/11 A3001 RMK A01 T03280110  RH  027%=      5-min Rain = 0
KARS 220130Z 12007KT 33/11 A3001 RMK A01 T03250111  RH  028%=      5-min Rain = 0
KARS 220135Z 12007KT 32/11 A3001 RMK A01 T03230111  RH  028%=      5-min Rain = 0
KARS 220140Z 11007KT 32/11 A3001 RMK A01 T03190112  RH  029%=      5-min Rain = 0
KARS 220145Z 12006KT 32/11 A3002 RMK A01 T03160112  RH  030%=      5-min Rain = 0
KARS 220150Z 12006KT 31/11 A3002 RMK A01 T03140112  RH  030%=      5-min Rain = 0
KARS 220155Z 12007KT 31/11 A3002 RMK A01 T03110112  RH  030%=      5-min Rain = 0
KARS 220200Z 12006KT 31/11 A3002 RMK A01 T03080112  RH  031%=      5-min Rain = 0
KARS 220205Z 10007KT 30/11 A3002 RMK A01 T03040114  RH  032%=      5-min Rain = 0
KARS 220210Z 10007KT 30/12 A3002 RMK A01 T03010117  RH  033%=      5-min Rain = 0
KARS 220215Z 10008KT 30/12 A3002 RMK A01 T02990116  RH  034%=      5-min Rain = 0
KARS 220220Z 11008KT 30/12 A3003 RMK A01 T03000115  RH  033%=      5-min Rain = 0
KARS 220225Z 11008KT 30/11 A3003 RMK A01 T02980114  RH  033%=      5-min Rain = 0
KARS 220230Z 11009KT 30/11 A3003 RMK A01 T02970111  RH  033%=      5-min Rain = 0
KARS 220235Z 11009KT 30/11 A3003 RMK A01 T02970106  RH  032%=      5-min Rain = 0
KARS 220240Z 11009KT 30/10 A3003 RMK A01 T02970102  RH  031%=      5-min Rain = 0
KARS 220245Z 11009KT 30/10 A3003 RMK A01 T02960101  RH  031%=      5-min Rain = 0
KARS 220250Z 11008KT 29/10 A3003 RMK A01 T02930102  RH  032%=      5-min Rain = 0
KARS 220255Z 11008KT 29/10 A3004 RMK A01 T02900102  RH  032%=      5-min Rain = 0
KARS 220300Z 11008KT 29/10 A3004 RMK A01 T02880102  RH  032%=      5-min Rain = 0
KARS 220305Z 11008KT 29/10 A3004 RMK A01 T02860102  RH  033%=      5-min Rain = 0
KARS 220310Z 11008KT 29/10 A3005 RMK A01 T02850101  RH  033%=      5-min Rain = 0
KARS 220315Z 11008KT 29/10 A3005 RMK A01 T02860101  RH  032%=      5-min Rain = 0
KARS 220320Z 11008KT 29/10 A3005 RMK A01 T02860100  RH  032%=      5-min Rain = 0
KARS 220325Z 12009KT 29/10 A3005 RMK A01 T02860100  RH  032%=      5-min Rain = 0
KARS 220330Z 12009KT 29/10 A3005 RMK A01 T02850101  RH  033%=      5-min Rain = 0
KARS 220335Z 12009KT 28/10 A3005 RMK A01 T02830102  RH  033%=      5-min Rain = 0
KARS 220340Z 13010KT 28/11 A3005 RMK A01 T02810105  RH  034%=      5-min Rain = 0
KARS 220345Z 13010KT 28/10 A3005 RMK A01 T02800104  RH  035%=      5-min Rain = 0
KARS 220350Z 13009KT 28/10 A3005 RMK A01 T02790104  RH  035%=      5-min Rain = 0
KARS 220355Z 13010KT 28/10 A3005 RMK A01 T02790103  RH  035%=      5-min Rain = 0
KARS 220400Z 13009KT 28/10 A3005 RMK A01 T02780102  RH  034%=      5-min Rain = 0
KARS 220405Z 13009KT 28/10 A3006 RMK A01 T02800101  RH  034%=      5-min Rain = 0
KARS 220410Z 13009KT 28/10 A3006 RMK A01 T02810101  RH  034%=      5-min Rain = 0
KARS 220415Z 13009KT 28/10 A3006 RMK A01 T02810102  RH  034%=      5-min Rain = 0
KARS 220420Z 13009KT 28/10 A3007 RMK A01 T02790103  RH  034%=      5-min Rain = 0
KARS 220425Z 13009KT 28/10 A3007 RMK A01 T02790102  RH  034%=      5-min Rain = 0
KARS 220430Z 13009KT 28/10 A3007 RMK A01 T02800102  RH  034%=      5-min Rain = 0
KARS 220435Z 14009KT 28/10 A3007 RMK A01 T02790103  RH  034%=      5-min Rain = 0
KARS 220440Z 14009KT 28/10 A3008 RMK A01 T02780103  RH  035%=      5-min Rain = 0
KARS 220445Z 14009KT 28/10 A3008 RMK A01 T02760103  RH  035%=      5-min Rain = 0
KARS 220450Z 14009KT 28/10 A3008 RMK A01 T02750103  RH  035%=      5-min Rain = 0
KARS 220455Z 14009KT 27/10 A3008 RMK A01 T02740104  RH  036%=      5-min Rain = 0

Page generated in 0.0089 seconds.